Time;durP1;ratioP1;P1;durP2;ratioP2;P2;SDS_P1;SDS_P2;PMS_P1;PMS_P2;Temp;Humidity;BMP_temperature;BMP_pressure;BME280_temperature;BME280_humidity;BME280_pressure;Samples;Min_cycle;Max_cycle;Signal;HPM_P1;HPM_P2
2021/12/26 00:01:43;;;;;;;23.90;9.52;;;-0.30;99.90;;;;;;5019017;28;20018;-83
2021/12/26 00:04:13;;;;;;;24.88;9.07;;;-0.30;99.90;;;;;;5018826;28;20043;-84
2021/12/26 00:06:40;;;;;;;24.35;9.10;;;-0.30;99.90;;;;;;5020733;28;20019;-84
2021/12/26 00:09:06;;;;;;;22.63;9.15;;;-0.30;99.90;;;;;;5020648;28;20058;-86
2021/12/26 00:11:31;;;;;;;23.08;8.40;;;-0.40;99.90;;;;;;5020106;28;20037;-84
2021/12/26 00:13:57;;;;;;;27.02;8.98;;;-0.40;99.90;;;;;;5020356;28;20049;-84
2021/12/26 00:16:24;;;;;;;23.10;9.43;;;-0.40;99.90;;;;;;5018268;28;20045;-84
2021/12/26 00:18:51;;;;;;;24.15;8.90;;;-0.40;99.90;;;;;;5020502;28;20029;-84
2021/12/26 00:21:20;;;;;;;25.13;9.10;;;-0.40;99.90;;;;;;5019908;28;20045;-84
2021/12/26 00:23:46;;;;;;;23.23;8.63;;;-0.50;99.90;;;;;;5019717;28;20030;-85
2021/12/26 00:26:14;;;;;;;22.35;8.40;;;-0.40;99.90;;;;;;5020275;28;20018;-84
2021/12/26 00:28:40;;;;;;;24.92;9.70;;;-0.40;99.90;;;;;;5017498;28;20049;-85
2021/12/26 00:31:06;;;;;;;23.23;7.75;;;-0.40;99.90;;;;;;5009665;28;20129;-84
2021/12/26 00:33:33;;;;;;;26.33;9.27;;;-0.40;99.90;;;;;;5011075;28;20050;-85
2021/12/26 00:36:00;;;;;;;27.67;9.40;;;-0.50;99.90;;;;;;5013560;28;20030;-85
2021/12/26 00:38:27;;;;;;;28.45;8.32;;;-0.50;99.90;;;;;;5012926;28;20022;-85
2021/12/26 00:40:52;;;;;;;26.27;8.68;;;-0.50;99.90;;;;;;5012612;28;20041;-83
2021/12/26 00:43:18;;;;;;;23.45;8.50;;;-0.50;99.90;;;;;;5013331;28;20026;-84
2021/12/26 00:45:45;;;;;;;24.08;9.02;;;-0.50;99.90;;;;;;5013107;28;20339;-84
2021/12/26 00:48:10;;;;;;;25.45;8.88;;;-0.50;99.90;;;;;;4990968;28;20121;-84
2021/12/26 00:50:40;;;;;;;19.75;8.02;;;-0.50;99.90;;;;;;5015203;28;20049;-84
2021/12/26 00:53:06;;;;;;;23.73;8.55;;;-0.50;99.90;;;;;;5017306;28;20041;-83
2021/12/26 00:55:33;;;;;;;22.58;9.27;;;-0.50;99.90;;;;;;5017224;28;20171;-84
2021/12/26 00:57:59;;;;;;;20.77;8.52;;;-0.50;99.90;;;;;;5017648;28;20034;-82
2021/12/26 01:00:30;;;;;;;22.48;9.43;;;-0.50;99.90;;;;;;5014221;28;20137;-84
2021/12/26 01:02:58;;;;;;;28.55;8.98;;;-0.60;99.90;;;;;;5013872;28;20038;-83
2021/12/26 01:05:25;;;;;;;24.77;9.32;;;-0.50;99.90;;;;;;5018638;28;20030;-82
2021/12/26 01:08:03;;;;;;;25.65;9.18;;;-0.50;99.90;;;;;;5018464;28;20041;-84
2021/12/26 01:10:36;;;;;;;22.80;8.15;;;-0.50;99.90;;;;;;5018971;28;20026;-83
2021/12/26 01:13:14;;;;;;;22.75;9.88;;;-0.50;99.90;;;;;;5018602;28;20022;-83
2021/12/26 01:15:43;;;;;;;26.65;8.55;;;-0.60;99.90;;;;;;5018698;28;20054;-83
2021/12/26 01:18:18;;;;;;;25.45;8.52;;;-0.50;99.90;;;;;;5018845;28;20485;-82
2021/12/26 01:20:55;;;;;;;25.48;8.25;;;-0.50;99.90;;;;;;5018705;28;20027;-84
2021/12/26 01:23:25;;;;;;;26.08;9.98;;;-0.60;99.90;;;;;;5018213;28;20069;-82
2021/12/26 01:25:52;;;;;;;24.70;8.60;;;-0.50;99.90;;;;;;5015544;28;20030;-83
2021/12/26 01:28:21;;;;;;;25.58;9.35;;;-0.50;99.90;;;;;;5012451;28;20026;-84
2021/12/26 01:30:48;;;;;;;19.70;8.45;;;-0.50;99.90;;;;;;5008376;28;20038;-84
2021/12/26 01:33:16;;;;;;;27.00;8.77;;;-0.50;99.90;;;;;;5010047;28;20088;-82
2021/12/26 01:36:03;;;;;;;22.58;8.40;;;-0.60;99.90;;;;;;5001745;28;20031;-83
2021/12/26 01:38:59;;;;;;;23.50;8.02;;;-0.50;99.90;;;;;;5001437;28;20044;-79
2021/12/26 01:41:51;;;;;;;26.30;8.93;;;-0.60;99.90;;;;;;5013398;28;20045;-80
2021/12/26 01:44:40;;;;;;;23.05;8.05;;;-0.50;99.90;;;;;;4999850;28;20030;-83
2021/12/26 01:47:11;;;;;;;25.77;9.63;;;-0.50;99.90;;;;;;5013771;28;20030;-81
2021/12/26 01:49:37;;;;;;;23.48;8.60;;;-0.50;99.90;;;;;;5004935;28;20053;-82
2021/12/26 01:52:05;;;;;;;23.60;8.75;;;-0.60;99.90;;;;;;4985973;28;20027;-83
2021/12/26 01:54:39;;;;;;;23.10;7.75;;;-0.60;99.90;;;;;;5011545;28;20006;-82
2021/12/26 01:57:09;;;;;;;19.02;8.35;;;-0.60;99.90;;;;;;5016618;28;20026;-83
2021/12/26 02:02:17;;;;;;;24.23;8.30;;;-0.60;99.90;;;;;;4950059;26;20110;-86
2021/12/26 02:04:44;;;;;;;20.48;8.32;;;-0.60;99.90;;;;;;4982549;28;20052;-87
2021/12/26 02:07:12;;;;;;;26.58;9.07;;;-0.60;99.90;;;;;;4964421;28;20027;-88
2021/12/26 02:09:40;;;;;;;23.17;8.73;;;-0.70;99.90;;;;;;4980323;28;20053;-87
2021/12/26 02:12:08;;;;;;;21.63;7.70;;;-0.70;99.90;;;;;;4964125;28;20030;-87
2021/12/26 02:14:34;;;;;;;23.45;8.98;;;-0.60;99.90;;;;;;4965935;29;20035;-88
2021/12/26 02:17:20;;;;;;;21.98;8.68;;;-0.70;99.90;;;;;;4974032;29;20045;-87
2021/12/26 02:19:49;;;;;;;27.58;9.07;;;-0.60;99.90;;;;;;4977804;28;20039;-85
2021/12/26 02:22:21;;;;;;;21.38;8.48;;;-0.70;99.90;;;;;;4972837;28;20081;-87
2021/12/26 02:27:31;;;;;;;21.85;7.88;;;-0.70;99.90;;;;;;4966912;28;20034;-86
2021/12/26 02:30:11;;;;;;;23.08;7.53;;;-0.70;99.90;;;;;;4970277;29;20055;-86
2021/12/26 02:32:37;;;;;;;23.50;8.30;;;-0.60;99.90;;;;;;4966345;28;20488;-86
2021/12/26 02:35:04;;;;;;;20.50;8.02;;;-0.60;99.90;;;;;;4950872;29;20082;-87
2021/12/26 02:37:30;;;;;;;18.83;7.50;;;-0.60;99.90;;;;;;4968974;28;20023;-87
2021/12/26 02:39:56;;;;;;;23.42;8.00;;;-0.50;99.90;;;;;;4967233;29;20055;-86
2021/12/26 02:42:23;;;;;;;25.17;8.05;;;-0.50;99.90;;;;;;4967241;28;20031;-87
2021/12/26 02:44:53;;;;;;;18.15;7.28;;;-0.50;99.90;;;;;;4968692;28;20011;-86
2021/12/26 02:47:42;;;;;;;19.00;7.35;;;-0.50;99.90;;;;;;4977143;28;20035;-87
2021/12/26 02:50:13;;;;;;;24.55;9.27;;;-0.50;99.90;;;;;;4971462;29;20034;-87
2021/12/26 02:52:39;;;;;;;23.38;8.18;;;-0.50;99.90;;;;;;4972235;29;20042;-89
2021/12/26 02:55:07;;;;;;;21.92;8.77;;;-0.50;99.90;;;;;;4978358;28;20027;-89
2021/12/26 02:57:33;;;;;;;24.30;7.57;;;-0.50;99.90;;;;;;4977975;28;20040;-87
2021/12/26 03:00:14;;;;;;;23.73;8.57;;;-0.40;99.90;;;;;;4977939;28;20066;-88
2021/12/26 03:02:46;;;;;;;26.52;8.07;;;-0.50;99.90;;;;;;4976269;29;20050;-87
2021/12/26 03:05:13;;;;;;;23.27;8.80;;;-0.50;99.90;;;;;;4972191;29;20042;-88
2021/12/26 03:07:39;;;;;;;19.23;7.38;;;-0.50;99.90;;;;;;4976316;28;20011;-88
2021/12/26 03:10:10;;;;;;;23.15;8.15;;;-0.50;99.90;;;;;;4977855;28;20047;-88
2021/12/26 03:12:40;;;;;;;24.40;8.70;;;-0.50;99.90;;;;;;4978586;28;20129;-88
2021/12/26 03:15:10;;;;;;;19.77;8.20;;;-0.50;99.90;;;;;;4976220;29;20034;-88
2021/12/26 03:17:37;;;;;;;28.23;8.50;;;-0.50;99.90;;;;;;4975574;28;20027;-87
2021/12/26 03:20:17;;;;;;;20.52;8.00;;;-0.50;99.90;;;;;;4968907;28;20027;-88
2021/12/26 03:22:45;;;;;;;18.45;7.63;;;-0.50;99.90;;;;;;4971222;29;20451;-88
2021/12/26 03:25:14;;;;;;;24.27;8.18;;;-0.40;99.90;;;;;;4970305;28;20494;-88
2021/12/26 03:27:40;;;;;;;31.80;8.32;;;-0.50;99.90;;;;;;4969913;29;20035;-86
2021/12/26 03:30:08;;;;;;;25.70;9.10;;;-0.50;99.90;;;;;;4973360;29;20051;-87
2021/12/26 03:32:36;;;;;;;21.73;7.63;;;-0.50;99.90;;;;;;4977288;28;20054;-87
2021/12/26 03:35:03;;;;;;;21.05;7.68;;;-0.60;99.90;;;;;;4962564;28;20019;-88
2021/12/26 03:37:29;;;;;;;18.98;7.95;;;-0.60;99.90;;;;;;4971576;28;20069;-88
2021/12/26 03:39:56;;;;;;;19.25;7.68;;;-0.60;99.90;;;;;;4969096;28;20034;-85
2021/12/26 03:42:23;;;;;;;22.10;8.13;;;-0.60;99.90;;;;;;4973596;28;20020;-89
2021/12/26 03:44:51;;;;;;;20.42;8.45;;;-0.60;99.90;;;;;;4974629;28;20083;-86
2021/12/26 03:47:17;;;;;;;25.27;7.78;;;-0.60;99.90;;;;;;4971323;28;20031;-87
2021/12/26 03:49:44;;;;;;;20.25;7.65;;;-0.60;99.90;;;;;;4966310;28;20023;-89
2021/12/26 03:52:10;;;;;;;21.95;6.93;;;-0.60;99.90;;;;;;4968353;28;20468;-88
2021/12/26 03:54:36;;;;;;;20.20;7.20;;;-0.70;99.90;;;;;;4972434;28;20269;-86
2021/12/26 03:57:03;;;;;;;18.52;7.65;;;-0.70;99.90;;;;;;4969800;28;20031;-87
2021/12/26 03:59:31;;;;;;;18.25;6.70;;;-0.70;99.90;;;;;;4951442;29;20031;-87
2021/12/26 04:01:58;;;;;;;25.67;7.63;;;-0.70;99.90;;;;;;4968195;28;20023;-87
2021/12/26 04:04:24;;;;;;;25.50;7.35;;;-0.70;99.90;;;;;;4968866;28;20038;-88
2021/12/26 04:06:52;;;;;;;19.48;7.07;;;-0.70;99.90;;;;;;4967621;28;20057;-87
2021/12/26 04:09:18;;;;;;;21.85;7.78;;;-0.70;99.90;;;;;;4972000;28;20059;-86
2021/12/26 04:11:45;;;;;;;19.25;7.35;;;-0.70;99.90;;;;;;4976072;28;20012;-87
2021/12/26 04:14:14;;;;;;;18.98;6.63;;;-0.70;99.90;;;;;;4975060;28;20078;-87
2021/12/26 04:16:40;;;;;;;20.85;7.70;;;-0.80;99.90;;;;;;4970080;29;20071;-87
2021/12/26 04:19:06;;;;;;;16.25;6.72;;;-0.90;99.90;;;;;;4971300;28;20019;-86
2021/12/26 04:21:32;;;;;;;22.88;7.97;;;-0.80;99.90;;;;;;4976116;28;20404;-86
2021/12/26 04:24:01;;;;;;;20.58;7.57;;;-0.90;99.90;;;;;;4978973;29;20099;-88
2021/12/26 04:26:27;;;;;;;19.35;7.30;;;-0.90;99.90;;;;;;4969446;28;20023;-89
2021/12/26 04:28:53;;;;;;;23.05;6.95;;;-0.90;99.90;;;;;;4973418;28;20145;-88
2021/12/26 04:31:21;;;;;;;22.42;7.93;;;-0.90;99.90;;;;;;4969799;28;20034;-87
2021/12/26 04:33:47;;;;;;;24.77;8.10;;;-1.00;99.90;;;;;;4954041;29;20418;-87
2021/12/26 04:36:14;;;;;;;18.30;6.85;;;-1.00;99.90;;;;;;4968835;28;20031;-88
2021/12/26 04:38:41;;;;;;;24.27;7.85;;;-1.10;99.90;;;;;;4966489;29;20027;-87
2021/12/26 04:41:07;;;;;;;26.13;8.35;;;-1.10;99.90;;;;;;4964079;28;20327;-88
2021/12/26 04:43:59;;;;;;;25.92;7.35;;;-1.10;99.90;;;;;;4963783;28;20109;-87
2021/12/26 04:46:49;;;;;;;16.00;7.30;;;-1.20;99.90;;;;;;4964986;29;20033;-88
2021/12/26 04:49:22;;;;;;;22.73;7.15;;;-1.20;99.90;;;;;;4963887;29;20619;-89
2021/12/26 04:51:48;;;;;;;19.67;7.15;;;-1.20;99.90;;;;;;4965384;28;20403;-88
2021/12/26 04:54:14;;;;;;;21.92;7.63;;;-1.30;99.90;;;;;;4965602;28;20019;-88
2021/12/26 04:56:42;;;;;;;22.52;7.75;;;-1.40;99.90;;;;;;4971922;29;20027;-89
2021/12/26 04:59:07;;;;;;;24.27;7.50;;;-1.40;99.90;;;;;;4963588;29;20038;-88
2021/12/26 05:01:35;;;;;;;20.67;7.43;;;-1.40;99.90;;;;;;4971543;28;20122;-86
2021/12/26 05:04:01;;;;;;;25.27;8.55;;;-1.40;99.90;;;;;;4966354;28;20007;-89
2021/12/26 05:06:27;;;;;;;19.33;6.40;;;-1.40;99.90;;;;;;4970409;28;20062;-87
2021/12/26 05:08:53;;;;;;;25.48;8.55;;;-1.50;99.90;;;;;;4965204;28;20023;-86
2021/12/26 05:11:19;;;;;;;22.00;7.35;;;-1.50;99.90;;;;;;4966219;28;20518;-86
2021/12/26 05:13:45;;;;;;;21.08;7.20;;;-1.50;99.90;;;;;;4966582;28;20027;-86
2021/12/26 05:16:11;;;;;;;20.95;7.05;;;-1.60;99.90;;;;;;4962394;29;20031;-88
2021/12/26 05:18:38;;;;;;;22.58;7.63;;;-1.60;99.90;;;;;;4947999;29;20447;-87
2021/12/26 05:21:05;;;;;;;27.45;7.93;;;-1.60;99.90;;;;;;4965236;28;20031;-87
2021/12/26 05:23:31;;;;;;;24.95;8.45;;;-1.70;99.90;;;;;;4963154;28;20027;-88
2021/12/26 05:25:59;;;;;;;24.50;7.55;;;-1.70;99.90;;;;;;4962936;28;20031;-89
2021/12/26 05:28:26;;;;;;;25.90;7.50;;;-1.70;99.90;;;;;;4962181;28;20024;-86
2021/12/26 05:30:52;;;;;;;17.45;7.30;;;-1.70;99.90;;;;;;4968665;28;20084;-88
2021/12/26 05:33:23;;;;;;;26.52;8.00;;;-1.70;99.90;;;;;;4961362;29;20416;-87
2021/12/26 05:35:53;;;;;;;20.23;7.53;;;-1.70;99.90;;;;;;4967769;28;20028;-87
2021/12/26 05:38:21;;;;;;;18.02;7.45;;;-1.80;99.90;;;;;;4962377;28;20035;-88
2021/12/26 05:40:48;;;;;;;27.45;7.55;;;-1.70;99.90;;;;;;4967391;29;20043;-87
2021/12/26 05:43:14;;;;;;;23.33;7.72;;;-1.70;99.90;;;;;;4968654;29;20031;-89
2021/12/26 05:45:41;;;;;;;22.67;7.40;;;-1.70;99.90;;;;;;4974317;28;20039;-86
2021/12/26 05:48:13;;;;;;;24.38;8.32;;;-1.70;99.90;;;;;;4958798;29;20027;-87
2021/12/26 05:50:39;;;;;;;23.98;7.65;;;-1.80;99.90;;;;;;4968591;29;20123;-88
2021/12/26 05:53:17;;;;;;;21.58;8.23;;;-1.80;99.90;;;;;;4967959;29;20023;-89
2021/12/26 05:55:43;;;;;;;20.85;7.03;;;-1.70;99.90;;;;;;4965265;29;20448;-87
2021/12/26 05:58:09;;;;;;;19.42;8.00;;;-1.70;99.90;;;;;;4965799;28;20495;-88
2021/12/26 06:00:35;;;;;;;26.17;7.72;;;-1.70;99.90;;;;;;4974992;29;20046;-86
2021/12/26 06:03:01;;;;;;;24.77;7.95;;;-1.60;99.90;;;;;;4976864;28;20026;-87
2021/12/26 06:05:28;;;;;;;25.55;7.93;;;-1.60;99.90;;;;;;4976424;29;20034;-88
2021/12/26 06:07:53;;;;;;;25.75;8.13;;;-1.70;99.90;;;;;;4977036;29;20066;-88
2021/12/26 06:10:20;;;;;;;25.77;8.20;;;-1.70;99.90;;;;;;4960659;29;20019;-88
2021/12/26 06:12:46;;;;;;;20.65;7.65;;;-1.70;99.90;;;;;;4963356;28;20100;-89
2021/12/26 06:15:13;;;;;;;19.80;7.72;;;-1.70;99.90;;;;;;4979465;28;20075;-89
2021/12/26 06:17:39;;;;;;;22.90;8.18;;;-1.80;99.90;;;;;;4979389;28;20019;-89
2021/12/26 06:20:13;;;;;;;26.88;8.88;;;-1.80;99.90;;;;;;4979160;28;20023;-90
2021/12/26 06:22:45;;;;;;;32.67;8.95;;;-1.80;99.90;;;;;;4979557;28;20054;-90
2021/12/26 06:25:30;;;;;;;26.25;8.73;;;-1.90;99.90;;;;;;4977885;28;20042;-88
2021/12/26 06:28:31;;;;;;;26.65;9.15;;;-1.90;99.90;;;;;;4975247;28;20039;-88
2021/12/26 06:31:24;;;;;;;33.60;9.65;;;-2.00;99.90;;;;;;4975784;28;20039;-88
2021/12/26 06:34:12;;;;;;;27.42;8.68;;;-2.00;99.90;;;;;;4975507;28;20046;-88
2021/12/26 06:36:57;;;;;;;;;;;-2.00;99.90;;;;;;4972143;29;20042;-87
2021/12/26 06:39:42;;;;;;;24.20;8.65;;;-1.90;99.90;;;;;;4971007;29;19984;-88
2021/12/26 06:42:29;;;;;;;28.40;9.35;;;-1.90;99.90;;;;;;4971818;29;20046;-88
2021/12/26 06:45:16;;;;;;;26.27;8.23;;;-2.00;99.90;;;;;;4973122;29;20062;-88
2021/12/26 06:48:02;;;;;;;33.45;9.93;;;-2.00;99.90;;;;;;4973325;29;20059;-87
2021/12/26 06:50:29;;;;;;;34.65;10.90;;;-2.00;99.90;;;;;;4972023;28;20038;-87
2021/12/26 06:52:55;;;;;;;35.45;12.25;;;-2.00;99.90;;;;;;4956701;29;20026;-89
2021/12/26 06:55:21;;;;;;;37.78;11.38;;;-2.00;99.90;;;;;;4971844;28;20027;-87
2021/12/26 06:57:47;;;;;;;30.13;10.90;;;-2.00;99.90;;;;;;4958101;29;20050;-89
2021/12/26 07:00:15;;;;;;;30.70;10.02;;;-2.00;99.90;;;;;;4974256;28;20034;-88
2021/12/26 07:02:42;;;;;;;35.53;11.75;;;-2.00;99.90;;;;;;4959053;29;20027;-88
2021/12/26 07:05:14;;;;;;;31.13;11.35;;;-2.00;99.90;;;;;;4977875;28;20031;-89
2021/12/26 07:07:54;;;;;;;27.92;10.18;;;-2.00;99.90;;;;;;4962662;28;20059;-89
2021/12/26 07:10:20;;;;;;;36.15;11.43;;;-2.00;99.90;;;;;;4976957;28;20043;-87
2021/12/26 07:12:48;;;;;;;46.20;13.40;;;-2.10;99.90;;;;;;4956731;29;20122;-88
2021/12/26 07:15:24;;;;;;;39.25;11.40;;;-2.00;99.90;;;;;;4976693;29;20015;-89
2021/12/26 07:17:56;;;;;;;36.50;11.75;;;-2.00;99.90;;;;;;4978940;28;20043;-87
2021/12/26 07:20:23;;;;;;;33.72;11.70;;;-2.00;99.90;;;;;;4978786;28;20014;-89
2021/12/26 07:23:24;;;;;;;38.38;12.60;;;-2.00;99.90;;;;;;4946532;29;20042;-88
2021/12/26 07:25:56;;;;;;;35.60;13.07;;;-2.00;99.90;;;;;;4974760;28;20027;-88
2021/12/26 07:28:22;;;;;;;37.72;12.77;;;-2.00;99.90;;;;;;4966659;28;20015;-89
2021/12/26 07:31:23;;;;;;;40.05;12.32;;;-1.90;99.90;;;;;;4975447;28;20023;-89
2021/12/26 07:33:55;;;;;;;;;;;-1.90;99.90;;;;;;4981206;28;20031;-89
2021/12/26 07:36:21;;;;;;;38.03;12.82;;;-1.80;99.90;;;;;;4980247;28;19911;-88
2021/12/26 07:38:58;;;;;;;41.38;12.65;;;-1.80;99.90;;;;;;4974798;29;20023;-87
2021/12/26 07:41:32;;;;;;;48.00;12.75;;;-1.70;99.90;;;;;;4971782;29;20058;-87
2021/12/26 07:43:58;;;;;;;35.85;13.27;;;-1.60;99.90;;;;;;5016728;23;20101;-87
2021/12/26 07:46:43;;;;;;;;;;;-1.60;99.90;;;;;;5022609;28;20037;-87
2021/12/26 07:49:22;;;;;;;35.83;12.23;;;-1.50;99.90;;;;;;5006162;28;19921;-88
2021/12/26 07:52:13;;;;;;;47.40;14.82;;;-1.50;99.90;;;;;;5001913;28;20042;-87
2021/12/26 07:55:01;;;;;;;42.88;13.80;;;-1.40;99.90;;;;;;5000697;28;20054;-88
2021/12/26 07:57:53;;;;;;;37.80;13.80;;;-1.40;99.90;;;;;;4999633;28;20049;-86
2021/12/26 08:00:37;;;;;;;42.92;13.30;;;-1.40;99.90;;;;;;5061349;23;20066;-83
2021/12/26 08:03:18;;;;;;;48.97;14.20;;;-1.40;99.90;;;;;;4999470;28;20035;-83
2021/12/26 08:05:52;;;;;;;39.78;13.38;;;-1.40;99.90;;;;;;4999950;28;20050;-82
2021/12/26 08:08:36;;;;;;;37.03;12.77;;;-1.40;99.90;;;;;;4998040;28;20027;-84
2021/12/26 08:11:03;;;;;;;40.83;13.18;;;-1.40;99.90;;;;;;4995911;28;20038;-81
2021/12/26 08:13:31;;;;;;;43.17;14.40;;;-1.30;99.90;;;;;;4995113;28;20054;-82
2021/12/26 08:15:58;;;;;;;34.55;12.68;;;-1.20;99.90;;;;;;4979228;28;20042;-84
2021/12/26 08:18:24;;;;;;;37.70;13.57;;;-1.10;99.90;;;;;;4996999;28;20026;-83
2021/12/26 08:20:49;;;;;;;34.70;13.25;;;-1.10;99.90;;;;;;4993823;28;20031;-84
2021/12/26 08:23:15;;;;;;;38.85;13.85;;;-1.00;99.90;;;;;;4996264;28;20015;-84
2021/12/26 08:25:41;;;;;;;41.85;14.45;;;-0.90;99.90;;;;;;4997426;28;20015;-81
2021/12/26 08:28:07;;;;;;;37.78;13.25;;;-0.90;99.90;;;;;;4996052;28;20023;-84
2021/12/26 08:30:34;;;;;;;38.25;13.25;;;-0.80;99.90;;;;;;4994315;28;20027;-82
2021/12/26 08:33:05;;;;;;;37.22;13.10;;;-0.80;99.90;;;;;;4992507;28;20019;-83
2021/12/26 08:35:32;;;;;;;39.58;14.32;;;-0.70;99.90;;;;;;4998117;28;20019;-85
2021/12/26 08:37:58;;;;;;;41.65;13.75;;;-0.70;99.90;;;;;;4997886;28;20087;-83
2021/12/26 08:40:24;;;;;;;51.05;14.07;;;-0.60;99.90;;;;;;4999110;28;20023;-82
2021/12/26 08:42:49;;;;;;;41.03;14.18;;;-0.60;99.90;;;;;;4994108;28;20037;-85
2021/12/26 08:45:15;;;;;;;41.72;14.48;;;-0.60;99.90;;;;;;4989114;28;20482;-86
2021/12/26 08:47:41;;;;;;;48.53;14.32;;;-0.60;99.90;;;;;;4991089;28;20026;-83
2021/12/26 08:50:09;;;;;;;44.63;14.82;;;-0.60;99.90;;;;;;4998196;28;20098;-83
2021/12/26 08:52:35;;;;;;;37.83;14.05;;;-0.50;99.90;;;;;;4999424;28;20070;-82
2021/12/26 08:55:01;;;;;;;44.90;14.75;;;-0.50;99.90;;;;;;4999072;28;20026;-84
2021/12/26 08:57:27;;;;;;;36.35;14.02;;;-0.50;99.90;;;;;;4995776;28;20058;-84
2021/12/26 08:59:53;;;;;;;44.42;14.73;;;-0.40;99.90;;;;;;4984480;28;20085;-85
2021/12/26 09:02:18;;;;;;;41.47;14.13;;;-0.30;99.90;;;;;;4984837;28;20035;-85
2021/12/26 09:04:44;;;;;;;35.42;13.77;;;-0.30;99.90;;;;;;4985694;28;20027;-84
2021/12/26 09:07:10;;;;;;;41.65;13.95;;;-0.20;99.90;;;;;;4990215;28;20062;-84
2021/12/26 09:09:37;;;;;;;43.83;15.13;;;-0.20;99.90;;;;;;4990431;28;20027;-83
2021/12/26 09:12:04;;;;;;;48.00;15.27;;;-0.20;99.90;;;;;;4996242;28;20032;-84
2021/12/26 09:14:30;;;;;;;39.63;14.38;;;-0.30;99.90;;;;;;4999702;28;20076;-84
2021/12/26 09:16:59;;;;;;;45.28;15.00;;;-0.30;99.90;;;;;;4991817;28;20643;-84
2021/12/26 09:19:28;;;;;;;39.30;13.38;;;-0.30;99.90;;;;;;4993802;28;20019;-83
2021/12/26 09:21:58;;;;;;;40.33;14.50;;;-0.30;99.90;;;;;;4998969;28;20475;-85
2021/12/26 09:24:24;;;;;;;45.95;15.15;;;-0.30;99.90;;;;;;4987272;28;20047;-84
2021/12/26 09:26:50;;;;;;;47.05;16.17;;;-0.30;99.90;;;;;;4993713;28;20015;-82
2021/12/26 09:29:16;;;;;;;38.70;14.13;;;-0.20;99.90;;;;;;4984110;28;20034;-83
2021/12/26 09:31:42;;;;;;;42.90;15.30;;;-0.20;99.90;;;;;;4981114;28;20045;-83
2021/12/26 09:34:08;;;;;;;46.72;15.88;;;-0.30;99.90;;;;;;4983237;28;20027;-84
2021/12/26 09:36:35;;;;;;;43.78;16.90;;;-0.30;99.90;;;;;;4985419;28;20034;-85
2021/12/26 09:39:03;;;;;;;42.97;16.23;;;-0.30;99.90;;;;;;4992017;28;20111;-84
2021/12/26 09:41:29;;;;;;;54.70;17.45;;;-0.30;99.90;;;;;;4990318;28;20395;-85
2021/12/26 09:43:55;;;;;;;51.15;19.25;;;-0.40;99.90;;;;;;4992177;28;20034;-82
2021/12/26 09:46:21;;;;;;;50.45;17.60;;;-0.40;99.90;;;;;;4993266;28;20031;-83
2021/12/26 09:48:46;;;;;;;52.30;16.60;;;-0.30;99.90;;;;;;4991148;28;20035;-84
2021/12/26 09:51:13;;;;;;;45.80;16.95;;;-0.30;99.90;;;;;;4990820;28;20034;-84
2021/12/26 09:53:40;;;;;;;50.03;16.70;;;-0.30;99.90;;;;;;4990600;28;20046;-83
2021/12/26 09:56:07;;;;;;;53.58;18.08;;;-0.30;99.90;;;;;;4991648;28;20019;-84
2021/12/26 09:58:34;;;;;;;48.42;17.70;;;-0.30;99.90;;;;;;4991490;28;20015;-84
2021/12/26 10:01:01;;;;;;;50.35;17.67;;;-0.20;99.90;;;;;;4991999;28;20159;-84
2021/12/26 10:03:35;;;;;;;45.88;17.88;;;-0.20;99.90;;;;;;4990408;28;20066;-85
2021/12/26 10:06:14;;;;;;;47.88;17.45;;;-0.30;99.90;;;;;;4990421;28;20033;-84
2021/12/26 10:09:01;;;;;;;46.83;17.58;;;-0.30;99.90;;;;;;4990528;28;20054;-84
2021/12/26 10:11:36;;;;;;;41.50;16.25;;;-0.30;99.90;;;;;;4976801;28;20042;-86
2021/12/26 10:14:11;;;;;;;51.33;16.85;;;-0.30;99.90;;;;;;4975982;28;20054;-84
2021/12/26 10:16:40;;;;;;;50.58;18.33;;;-0.30;99.90;;;;;;4983711;28;20031;-84
2021/12/26 10:19:07;;;;;;;51.47;18.10;;;-0.20;99.90;;;;;;4984866;28;20030;-85
2021/12/26 10:21:39;;;;;;;47.42;17.63;;;-0.20;99.90;;;;;;4982617;28;20058;-85
2021/12/26 10:24:13;;;;;;;45.80;17.83;;;-0.30;99.90;;;;;;4984772;28;20030;-83
2021/12/26 10:26:56;;;;;;;46.70;17.05;;;-0.30;99.90;;;;;;4984433;28;20026;-85
2021/12/26 10:29:26;;;;;;;52.08;17.98;;;-0.20;99.90;;;;;;4985666;28;20049;-85
2021/12/26 10:31:57;;;;;;;48.53;17.58;;;-0.20;99.90;;;;;;4984906;28;20031;-85
2021/12/26 10:34:30;;;;;;;51.80;17.10;;;-0.20;99.90;;;;;;4985045;28;20047;-85
2021/12/26 10:36:57;;;;;;;53.95;20.08;;;-0.20;99.90;;;;;;4988451;28;20083;-84
2021/12/26 10:39:29;;;;;;;58.72;19.23;;;-0.20;99.90;;;;;;4988913;28;20030;-84
2021/12/26 10:41:59;;;;;;;63.78;20.92;;;-0.30;99.90;;;;;;4966241;28;20030;-84
2021/12/26 10:44:29;;;;;;;57.75;19.20;;;-0.30;99.90;;;;;;4982539;28;20022;-85
2021/12/26 10:46:58;;;;;;;51.53;19.48;;;-0.20;99.90;;;;;;4968176;28;20053;-85
2021/12/26 10:50:02;;;;;;;62.05;19.73;;;-0.20;99.90;;;;;;4983991;28;20030;-85
2021/12/26 10:52:37;;;;;;;54.05;19.92;;;-0.10;99.90;;;;;;4994922;28;20053;-83
2021/12/26 10:55:12;;;;;;;57.83;20.63;;;-0.10;99.90;;;;;;4992069;28;20065;-85
2021/12/26 10:57:41;;;;;;;57.95;19.17;;;0.00;99.90;;;;;;4983651;28;20031;-84
2021/12/26 11:00:10;;;;;;;61.92;22.30;;;-0.10;99.90;;;;;;4986018;28;20080;-84
2021/12/26 11:02:37;;;;;;;57.28;20.58;;;-0.10;99.90;;;;;;4987695;28;20035;-84
2021/12/26 11:05:09;;;;;;;69.05;21.90;;;-0.10;99.90;;;;;;5000041;28;20023;-85
2021/12/26 11:07:44;;;;;;;72.28;23.38;;;-0.10;99.90;;;;;;5000000;28;20041;-84
2021/12/26 11:10:21;;;;;;;66.05;23.27;;;-0.10;99.90;;;;;;4989558;28;20035;-84
2021/12/26 11:12:51;;;;;;;72.85;25.58;;;-0.20;99.90;;;;;;4999126;28;20051;-83
2021/12/26 11:15:19;;;;;;;67.70;23.63;;;-0.20;99.90;;;;;;4992875;28;20454;-86
2021/12/26 11:17:57;;;;;;;75.97;23.80;;;-0.20;99.90;;;;;;4986271;28;20118;-85
2021/12/26 11:20:29;;;;;;;67.07;24.35;;;-0.10;99.90;;;;;;4984332;28;20035;-84
2021/12/26 11:22:55;;;;;;;72.82;24.38;;;-0.10;99.90;;;;;;4985316;28;20051;-84
2021/12/26 11:25:22;;;;;;;69.93;25.30;;;-0.20;99.90;;;;;;4986157;28;20031;-85
2021/12/26 11:27:49;;;;;;;79.82;26.88;;;-0.30;99.90;;;;;;4988001;28;20046;-84
2021/12/26 11:30:15;;;;;;;79.63;26.98;;;-0.40;99.90;;;;;;4985956;28;20029;-84
2021/12/26 11:32:42;;;;;;;86.65;27.38;;;-0.40;99.90;;;;;;4984548;28;20034;-84
2021/12/26 11:35:09;;;;;;;78.20;26.23;;;-0.40;99.90;;;;;;4985801;28;20030;-84
2021/12/26 11:37:37;;;;;;;77.90;27.77;;;-0.30;99.90;;;;;;4985811;28;20061;-85
2021/12/26 11:40:30;;;;;;;80.50;26.30;;;-0.30;99.90;;;;;;4961910;28;20035;-84
2021/12/26 11:43:37;;;;;;;75.05;26.25;;;-0.20;99.90;;;;;;4921598;28;20028;-84
2021/12/26 11:46:34;;;;;;;81.35;27.80;;;-0.20;99.90;;;;;;4987441;28;20061;-83
2021/12/26 11:50:01;;;;;;;85.05;28.02;;;-0.30;99.90;;;;;;4966317;28;20042;-85
2021/12/26 11:53:14;;;;;;;96.63;30.20;;;-0.30;99.90;;;;;;4985331;28;20045;-83
2021/12/26 11:56:48;;;;;;;99.13;32.17;;;-0.50;99.90;;;;;;4977031;28;20042;-85
2021/12/26 11:59:23;;;;;;;103.65;30.08;;;-0.60;99.90;;;;;;4978272;28;20050;-85
2021/12/26 12:01:49;;;;;;;;;;;-0.50;99.90;;;;;;4984599;28;20474;-84
2021/12/26 12:04:18;;;;;;;102.93;30.35;;;-0.40;99.90;;;;;;4984197;28;19934;-84
2021/12/26 12:06:49;;;;;;;91.60;29.25;;;-0.40;99.90;;;;;;4983814;28;20045;-84
2021/12/26 12:09:35;;;;;;;105.75;32.40;;;-0.30;99.90;;;;;;4983914;28;20031;-84
2021/12/26 12:12:04;;;;;;;89.60;29.55;;;-0.40;99.90;;;;;;4982131;28;20058;-84
2021/12/26 12:14:56;;;;;;;106.07;33.13;;;-0.30;99.90;;;;;;5000707;28;20042;-83
2021/12/26 12:17:24;;;;;;;93.38;31.17;;;-0.20;99.90;;;;;;4998531;28;20037;-85
2021/12/26 12:20:10;;;;;;;94.35;32.10;;;-0.20;99.90;;;;;;4987067;28;20019;-84
2021/12/26 12:22:56;;;;;;;105.78;32.88;;;-0.20;99.90;;;;;;4999364;28;20022;-84
2021/12/26 12:25:42;;;;;;;93.03;29.15;;;-0.20;99.90;;;;;;4990886;28;20042;-85
2021/12/26 12:28:31;;;;;;;94.97;30.60;;;-0.10;99.90;;;;;;4982468;28;20109;-85
2021/12/26 12:31:16;;;;;;;100.00;30.42;;;-0.10;99.90;;;;;;4983494;28;20539;-84
2021/12/26 12:33:43;;;;;;;105.68;30.33;;;-0.30;99.90;;;;;;4983710;28;20090;-83
2021/12/26 12:36:11;;;;;;;111.10;30.02;;;-0.30;99.90;;;;;;4983158;28;20037;-84
2021/12/26 12:38:41;;;;;;;94.32;30.73;;;-0.40;99.90;;;;;;4983979;28;20070;-84
2021/12/26 12:41:30;;;;;;;98.35;31.58;;;-0.30;99.90;;;;;;4983945;28;20374;-84
2021/12/26 12:44:00;;;;;;;103.07;32.30;;;-0.40;99.90;;;;;;4982788;28;20384;-84
2021/12/26 12:46:26;;;;;;;100.75;31.80;;;-0.50;99.90;;;;;;4983317;28;20050;-83
2021/12/26 12:49:07;;;;;;;107.93;31.95;;;-0.50;99.90;;;;;;4991193;28;20031;-84
2021/12/26 12:51:34;;;;;;;112.25;32.90;;;-0.60;99.90;;;;;;4991318;28;20093;-83
2021/12/26 12:54:22;;;;;;;106.57;33.70;;;-0.70;99.90;;;;;;4992180;28;20038;-83
2021/12/26 12:56:49;;;;;;;113.43;35.53;;;-0.60;99.90;;;;;;4994914;28;20030;-84
2021/12/26 12:59:20;;;;;;;97.43;33.60;;;-0.60;99.90;;;;;;4991391;28;20491;-84
2021/12/26 13:01:48;;;;;;;97.38;33.15;;;-0.60;99.90;;;;;;4989510;28;20034;-85